Time;durP1;ratioP1;P1;durP2;ratioP2;P2;SDS_P1;SDS_P2;PMS_P1;PMS_P2;Temp;Humidity;BMP_temperature;BMP_pressure;BME280_temperature;BME280_humidity;BME280_pressure;Samples;Min_cycle;Max_cycle;Signal;HPM_P1;HPM_P2
2022/03/27 00:02:31;;;;;;;10.77;9.43;;;0.60;99.90;;;;;;5125215;27;20667;-61
2022/03/27 00:05:12;;;;;;;11.98;10.38;;;0.70;99.90;;;;;;5124624;27;21104;-61
2022/03/27 00:07:52;;;;;;;9.75;8.85;;;0.80;99.90;;;;;;5103574;27;21151;-61
2022/03/27 00:11:23;;;;;;;8.98;8.10;;;0.90;99.90;;;;;;5104038;27;21155;-61
2022/03/27 00:13:33;;;;;;;9.57;8.57;;;1.10;99.90;;;;;;5104366;27;20566;-61
2022/03/27 00:16:13;;;;;;;8.90;8.05;;;1.20;99.90;;;;;;5084829;27;20544;-61
2022/03/27 00:18:53;;;;;;;8.73;7.93;;;1.20;99.90;;;;;;5104998;27;20558;-62
2022/03/27 00:21:33;;;;;;;7.88;7.22;;;1.30;99.90;;;;;;5104486;27;20565;-62
2022/03/27 00:24:12;;;;;;;6.80;6.10;;;1.40;99.90;;;;;;5145544;27;20550;-62
2022/03/27 00:26:53;;;;;;;8.48;7.68;;;1.40;99.90;;;;;;5146199;27;20542;-61
2022/03/27 00:29:32;;;;;;;8.32;7.53;;;1.40;99.90;;;;;;5104323;27;20542;-62
2022/03/27 00:32:12;;;;;;;8.55;7.75;;;1.50;99.90;;;;;;5164182;27;20545;-61
2022/03/27 00:34:53;;;;;;;9.43;8.20;;;1.70;99.90;;;;;;5145699;27;20538;-60
2022/03/27 00:37:34;;;;;;;8.20;7.40;;;1.80;99.90;;;;;;5105390;27;20538;-61
2022/03/27 00:40:15;;;;;;;8.40;7.68;;;1.90;99.90;;;;;;5084638;28;20871;-60
2022/03/27 00:42:54;;;;;;;8.23;7.43;;;2.00;99.90;;;;;;5146761;27;20551;-61
2022/03/27 00:45:34;;;;;;;7.70;7.03;;;2.10;99.90;;;;;;5145819;27;20554;-61
2022/03/27 00:48:14;;;;;;;7.82;7.07;;;2.10;99.90;;;;;;5105260;27;20709;-61
2022/03/27 00:50:55;;;;;;;7.85;7.10;;;2.20;99.90;;;;;;5084003;27;20573;-59
2022/03/27 00:53:35;;;;;;;7.93;7.15;;;2.30;99.90;;;;;;5104348;27;20530;-62
2022/03/27 00:56:15;;;;;;;8.43;7.32;;;2.40;99.90;;;;;;5104796;27;20576;-60
2022/03/27 00:58:55;;;;;;;8.68;7.28;;;2.50;99.90;;;;;;5080898;27;20591;-62
2022/03/27 01:01:38;;;;;;;7.97;7.05;;;2.60;99.90;;;;;;5070545;28;20567;-61
2022/03/27 01:04:18;;;;;;;8.38;7.68;;;2.60;99.90;;;;;;5105984;27;20537;-62
2022/03/27 01:06:59;;;;;;;8.32;7.63;;;2.70;99.90;;;;;;5102993;27;20553;-61
2022/03/27 01:09:40;;;;;;;8.82;8.02;;;2.70;99.90;;;;;;5104397;27;20979;-61
2022/03/27 01:12:34;;;;;;;8.30;7.63;;;2.70;99.90;;;;;;5105168;27;20587;-62
2022/03/27 01:15:26;;;;;;;9.18;8.35;;;2.80;99.90;;;;;;5084292;27;20565;-61
2022/03/27 01:18:07;;;;;;;12.88;8.60;;;2.90;99.90;;;;;;5105327;27;20571;-60
2022/03/27 01:20:47;;;;;;;10.98;9.15;;;2.90;99.90;;;;;;5124934;27;20537;-61
2022/03/27 01:23:27;;;;;;;10.35;9.45;;;2.90;99.90;;;;;;5084466;27;20557;-61
2022/03/27 01:26:07;;;;;;;11.18;10.07;;;3.00;99.90;;;;;;5084996;27;20576;-61
2022/03/27 01:28:46;;;;;;;10.65;9.75;;;3.00;99.90;;;;;;5126328;27;20544;-61
2022/03/27 01:31:27;;;;;;;9.70;8.90;;;2.90;99.90;;;;;;5084068;28;20893;-61
2022/03/27 01:34:07;;;;;;;10.85;9.77;;;2.90;99.90;;;;;;5084186;28;20668;-61
2022/03/27 01:36:46;;;;;;;9.90;8.90;;;2.80;99.90;;;;;;5105168;27;20541;-60
2022/03/27 01:39:26;;;;;;;9.95;9.05;;;2.80;99.90;;;;;;5083927;27;20564;-61
2022/03/27 01:42:07;;;;;;;10.02;8.77;;;2.70;99.90;;;;;;5125705;27;20578;-61
2022/03/27 01:44:47;;;;;;;10.25;9.35;;;2.70;99.90;;;;;;5105017;27;20533;-60
2022/03/27 01:47:27;;;;;;;10.40;9.30;;;2.70;99.90;;;;;;5105304;27;20529;-61
2022/03/27 01:50:08;;;;;;;10.40;9.40;;;2.70;99.90;;;;;;5104043;27;21228;-61
2022/03/27 01:52:48;;;;;;;10.90;9.80;;;2.70;99.90;;;;;;5105572;27;20549;-60
2022/03/27 01:55:28;;;;;;;10.18;9.07;;;2.80;99.90;;;;;;5084309;28;20675;-60
2022/03/27 01:58:09;;;;;;;10.80;9.60;;;2.80;99.90;;;;;;5126313;27;20944;-61
2022/03/27 02:00:50;;;;;;;10.63;9.73;;;2.90;99.90;;;;;;5145537;27;20550;-59
2022/03/27 02:03:29;;;;;;;10.38;9.50;;;3.00;99.90;;;;;;5084829;27;20558;-61
2022/03/27 02:06:09;;;;;;;10.75;9.70;;;3.00;99.90;;;;;;5145398;27;20673;-61
2022/03/27 02:08:49;;;;;;;9.65;7.45;;;3.00;99.90;;;;;;5146157;27;21214;-61
2022/03/27 02:11:28;;;;;;;10.30;9.50;;;3.00;99.90;;;;;;5125180;27;20544;-61
2022/03/27 02:14:09;;;;;;;9.35;8.55;;;3.00;99.90;;;;;;5084137;27;20664;-61
2022/03/27 02:16:48;;;;;;;9.15;8.43;;;3.00;99.90;;;;;;5084799;27;20543;-61
2022/03/27 02:19:28;;;;;;;9.13;8.32;;;2.90;99.90;;;;;;5124818;27;20664;-61
2022/03/27 02:22:08;;;;;;;9.65;8.65;;;2.80;99.90;;;;;;5084946;27;21028;-61
2022/03/27 02:24:48;;;;;;;9.65;8.73;;;2.80;99.90;;;;;;5104389;27;20550;-60
2022/03/27 02:27:27;;;;;;;10.85;9.75;;;2.70;99.90;;;;;;5146377;27;20685;-60
2022/03/27 02:30:10;;;;;;;11.20;9.70;;;2.50;99.90;;;;;;5083750;28;20679;-61
2022/03/27 02:32:49;;;;;;;10.98;9.98;;;2.40;99.90;;;;;;5126236;27;20544;-60
2022/03/27 02:35:29;;;;;;;10.57;9.68;;;2.40;99.90;;;;;;5084003;28;20668;-61
2022/03/27 02:38:09;;;;;;;10.02;9.18;;;2.30;99.90;;;;;;5146558;27;20661;-61
2022/03/27 02:40:48;;;;;;;9.75;8.88;;;2.20;99.90;;;;;;5083811;28;20563;-61
2022/03/27 02:43:28;;;;;;;9.15;8.25;;;2.10;99.90;;;;;;5125415;27;21077;-62
2022/03/27 02:46:08;;;;;;;9.57;8.75;;;2.00;99.90;;;;;;5105222;27;20545;-61
2022/03/27 02:48:48;;;;;;;10.57;9.02;;;1.80;99.90;;;;;;5126144;27;20659;-61
2022/03/27 02:51:28;;;;;;;9.43;8.57;;;1.60;99.90;;;;;;5158301;27;20553;-61
2022/03/27 02:54:08;;;;;;;9.95;8.85;;;1.40;99.90;;;;;;5084709;28;20664;-59
2022/03/27 02:56:47;;;;;;;9.40;8.50;;;1.30;99.90;;;;;;5126165;27;21025;-61
2022/03/27 02:59:27;;;;;;;11.13;9.88;;;1.20;99.90;;;;;;5084702;28;21326;-61
2022/03/27 03:02:08;;;;;;;11.15;9.88;;;1.10;99.90;;;;;;5105719;27;20681;-62
2022/03/27 03:04:47;;;;;;;10.02;9.00;;;0.90;99.90;;;;;;5105053;27;20806;-61
2022/03/27 03:07:27;;;;;;;9.52;8.68;;;0.80;99.90;;;;;;5084413;28;20543;-61
2022/03/27 03:10:08;;;;;;;10.98;9.68;;;0.70;99.90;;;;;;5125120;27;21053;-61
2022/03/27 03:12:48;;;;;;;11.45;8.18;;;0.60;99.90;;;;;;5105350;27;20550;-62
2022/03/27 03:15:28;;;;;;;10.13;9.18;;;0.50;99.90;;;;;;5105314;27;20766;-62
2022/03/27 03:18:10;;;;;;;10.20;8.65;;;0.40;99.90;;;;;;5105413;27;21008;-61
2022/03/27 03:20:49;;;;;;;9.35;8.55;;;0.40;99.90;;;;;;5083835;27;20544;-61
2022/03/27 03:23:29;;;;;;;9.15;8.45;;;0.40;99.90;;;;;;5084575;27;20577;-61
2022/03/27 03:26:09;;;;;;;9.85;8.68;;;0.30;99.90;;;;;;5085675;27;20849;-61
2022/03/27 03:28:48;;;;;;;9.45;8.65;;;0.10;99.90;;;;;;5084985;27;21027;-62
2022/03/27 03:31:28;;;;;;;9.70;8.90;;;0.00;99.90;;;;;;5125358;27;20694;-60
2022/03/27 03:34:08;;;;;;;11.15;10.02;;;0.00;99.90;;;;;;5084435;28;20553;-61
2022/03/27 03:36:48;;;;;;;10.38;9.48;;;0.00;99.90;;;;;;5105234;27;20665;-59
2022/03/27 03:39:27;;;;;;;9.18;8.40;;;0.00;99.90;;;;;;5084016;28;20691;-63
2022/03/27 03:42:08;;;;;;;9.45;8.57;;;-0.10;99.90;;;;;;5146760;27;20558;-61
2022/03/27 03:44:47;;;;;;;9.02;8.23;;;-0.10;99.90;;;;;;5105012;27;20658;-61
2022/03/27 03:47:27;;;;;;;11.02;8.93;;;-0.20;99.90;;;;;;5085120;28;20679;-61
2022/03/27 03:50:08;;;;;;;9.43;8.57;;;-0.30;99.90;;;;;;5104160;27;20538;-62
2022/03/27 03:52:47;;;;;;;9.82;8.60;;;-0.30;99.90;;;;;;5125774;27;20525;-61
2022/03/27 03:55:26;;;;;;;8.75;8.13;;;-0.20;99.90;;;;;;5145785;27;21006;-62
2022/03/27 03:58:07;;;;;;;9.70;8.65;;;-0.10;99.90;;;;;;5125830;27;20861;-61
2022/03/27 04:00:47;;;;;;;8.90;8.18;;;-0.30;99.90;;;;;;5124706;27;20615;-61
2022/03/27 04:03:26;;;;;;;13.13;8.60;;;-0.40;99.90;;;;;;5105337;27;20662;-60
2022/03/27 04:06:07;;;;;;;9.63;8.73;;;-0.40;99.90;;;;;;5146055;27;20568;-60
2022/03/27 04:08:47;;;;;;;9.95;8.88;;;-0.50;99.90;;;;;;5126376;27;20671;-61
2022/03/27 04:11:27;;;;;;;9.07;8.38;;;-0.40;99.90;;;;;;5084539;27;20547;-61
2022/03/27 04:14:07;;;;;;;9.13;8.43;;;-0.50;99.90;;;;;;5104927;27;20545;-62
2022/03/27 04:16:48;;;;;;;9.18;8.35;;;-0.50;99.90;;;;;;5146660;27;20546;-60
2022/03/27 04:19:27;;;;;;;10.45;9.15;;;-0.50;99.90;;;;;;5084319;27;21089;-61
2022/03/27 04:22:06;;;;;;;9.13;8.25;;;-0.50;99.90;;;;;;5084971;28;20687;-61
2022/03/27 04:24:46;;;;;;;9.32;8.52;;;-0.50;99.90;;;;;;5084092;27;20547;-62
2022/03/27 04:27:27;;;;;;;9.68;8.77;;;-0.50;99.90;;;;;;5084647;27;20683;-62
2022/03/27 04:30:10;;;;;;;11.52;8.32;;;-0.50;99.90;;;;;;5145708;27;20658;-62
2022/03/27 04:32:50;;;;;;;9.65;8.75;;;-0.50;99.90;;;;;;5146232;27;20568;-61
2022/03/27 04:35:30;;;;;;;9.70;8.80;;;-0.60;99.90;;;;;;5125083;27;20568;-62
2022/03/27 04:38:10;;;;;;;8.73;8.07;;;-0.60;99.90;;;;;;5105684;27;20693;-61
2022/03/27 04:40:50;;;;;;;9.25;8.55;;;-0.60;99.90;;;;;;5084129;27;20581;-62
2022/03/27 04:43:32;;;;;;;8.43;7.80;;;-0.70;99.90;;;;;;5145748;27;21027;-61
2022/03/27 04:46:11;;;;;;;9.00;8.30;;;-0.70;99.90;;;;;;5146193;27;20560;-60
2022/03/27 04:48:51;;;;;;;8.38;7.68;;;-0.80;99.90;;;;;;5105232;27;20670;-61
2022/03/27 04:51:31;;;;;;;8.88;8.15;;;-0.80;99.90;;;;;;5104284;27;20572;-61
2022/03/27 04:54:11;;;;;;;9.77;8.77;;;-0.60;99.90;;;;;;5125006;27;20675;-62
2022/03/27 04:56:51;;;;;;;9.40;8.50;;;-0.60;99.90;;;;;;5126072;27;20687;-62
2022/03/27 04:59:30;;;;;;;9.30;8.60;;;-0.60;99.90;;;;;;5104546;27;20658;-61
2022/03/27 05:02:10;;;;;;;8.82;8.13;;;-0.80;99.90;;;;;;5084933;27;20699;-60
2022/03/27 05:04:50;;;;;;;8.27;7.68;;;-0.80;99.90;;;;;;5145946;27;21027;-61
2022/03/27 05:07:30;;;;;;;9.05;8.25;;;-0.90;99.90;;;;;;5124322;27;20679;-61
2022/03/27 05:10:11;;;;;;;8.77;8.07;;;-0.90;99.90;;;;;;5104637;27;20554;-61
2022/03/27 05:12:51;;;;;;;8.68;7.90;;;-0.90;99.90;;;;;;5126311;27;21027;-60
2022/03/27 05:15:31;;;;;;;8.98;8.27;;;-0.90;99.90;;;;;;5145998;27;21087;-61
2022/03/27 05:18:11;;;;;;;10.23;9.25;;;-0.90;99.90;;;;;;5085330;28;20555;-60
2022/03/27 05:20:50;;;;;;;9.32;8.52;;;-0.90;99.90;;;;;;5105115;27;20674;-61
2022/03/27 05:23:30;;;;;;;10.20;9.20;;;-0.80;99.90;;;;;;5105093;27;20571;-61
2022/03/27 05:26:10;;;;;;;9.32;8.40;;;-0.80;99.90;;;;;;5084888;28;20566;-61
2022/03/27 05:28:50;;;;;;;9.40;8.50;;;-0.80;99.90;;;;;;5105203;27;20553;-62
2022/03/27 05:31:30;;;;;;;8.52;7.88;;;-0.70;99.90;;;;;;5124942;27;20591;-61
2022/03/27 05:34:10;;;;;;;8.57;7.97;;;-0.70;99.90;;;;;;5145644;27;20543;-61
2022/03/27 05:36:50;;;;;;;12.82;8.40;;;-0.60;99.90;;;;;;5085081;28;20667;-59
2022/03/27 05:39:29;;;;;;;8.60;7.90;;;-0.50;99.90;;;;;;5083790;28;20691;-61
2022/03/27 05:42:10;;;;;;;9.98;9.18;;;-0.30;99.90;;;;;;5105231;27;20557;-61
2022/03/27 05:44:49;;;;;;;9.63;8.85;;;-0.20;99.90;;;;;;5084392;27;20552;-61
2022/03/27 05:47:29;;;;;;;9.63;8.02;;;-0.10;99.90;;;;;;5104992;27;20531;-61
2022/03/27 05:50:10;;;;;;;8.10;7.30;;;0.00;99.90;;;;;;5083646;27;20556;-62
2022/03/27 05:52:51;;;;;;;9.20;8.40;;;0.10;99.90;;;;;;5085010;28;20543;-61
2022/03/27 05:55:30;;;;;;;8.98;8.07;;;0.30;99.90;;;;;;5104530;27;20550;-61
2022/03/27 05:58:12;;;;;;;8.45;7.72;;;0.40;99.90;;;;;;5085038;27;20978;-60
2022/03/27 06:00:52;;;;;;;9.50;8.80;;;0.50;99.90;;;;;;5124749;27;20552;-61
2022/03/27 06:03:31;;;;;;;10.80;9.25;;;0.70;99.90;;;;;;5084554;27;20532;-61
2022/03/27 06:06:11;;;;;;;9.10;8.20;;;0.80;99.90;;;;;;5083425;28;20671;-61
2022/03/27 06:08:51;;;;;;;9.32;8.60;;;1.00;99.90;;;;;;5125975;27;20671;-61
2022/03/27 06:11:30;;;;;;;10.27;9.27;;;1.10;99.90;;;;;;5084083;28;21033;-60
2022/03/27 06:14:10;;;;;;;9.85;8.95;;;1.30;99.90;;;;;;5145911;27;21070;-61
2022/03/27 06:16:51;;;;;;;10.88;8.77;;;1.40;99.90;;;;;;5120892;27;20665;-61
2022/03/27 06:19:30;;;;;;;10.35;9.52;;;1.60;99.90;;;;;;5083880;27;21194;-60
2022/03/27 06:22:10;;;;;;;9.82;8.95;;;1.70;99.90;;;;;;5164113;27;20548;-61
2022/03/27 06:24:50;;;;;;;10.98;9.90;;;1.90;99.90;;;;;;5124945;27;20532;-62
2022/03/27 06:27:30;;;;;;;10.38;9.50;;;2.00;99.90;;;;;;5125699;27;20543;-61
2022/03/27 06:30:12;;;;;;;10.95;10.05;;;2.10;99.90;;;;;;5104074;27;20549;-62
2022/03/27 06:32:52;;;;;;;12.68;11.48;;;2.30;99.90;;;;;;5125717;27;20648;-60
2022/03/27 06:35:33;;;;;;;11.68;10.57;;;2.40;99.90;;;;;;5124583;27;20999;-61
2022/03/27 06:38:14;;;;;;;10.98;9.82;;;2.50;99.90;;;;;;5141057;27;21555;-61
2022/03/27 06:40:53;;;;;;;12.02;10.90;;;2.70;99.90;;;;;;5082402;28;20708;-60
2022/03/27 06:43:33;;;;;;;11.55;10.55;;;2.80;99.90;;;;;;5082824;28;20564;-61
2022/03/27 06:46:16;;;;;;;10.95;9.88;;;2.90;99.90;;;;;;5144497;27;20776;-61
2022/03/27 06:48:56;;;;;;;12.50;10.52;;;3.10;99.90;;;;;;5083659;27;20576;-61
2022/03/27 06:51:36;;;;;;;11.32;10.32;;;3.20;99.90;;;;;;5070888;27;20582;-61
2022/03/27 06:54:16;;;;;;;12.68;11.40;;;3.40;99.90;;;;;;5143728;27;20554;-60
2022/03/27 06:56:55;;;;;;;11.80;10.77;;;3.60;99.90;;;;;;5072902;27;21186;-61
2022/03/27 07:05:27;;;;;;;11.18;10.30;;;4.10;99.90;;;;;;5122895;27;20662;-62
2022/03/27 07:08:08;;;;;;;12.35;11.15;;;4.40;99.90;;;;;;5102290;27;20561;-60
2022/03/27 07:10:50;;;;;;;11.75;10.70;;;4.60;99.90;;;;;;5094069;27;20570;-60
2022/03/27 07:13:30;;;;;;;11.82;10.73;;;4.80;99.90;;;;;;5145455;27;20542;-61
2022/03/27 07:16:10;;;;;;;12.05;10.82;;;5.00;99.90;;;;;;5103615;27;20950;-61
2022/03/27 07:18:50;;;;;;;11.82;10.80;;;5.20;99.90;;;;;;5084179;27;20925;-60
2022/03/27 07:21:29;;;;;;;10.80;9.82;;;5.40;99.90;;;;;;5121247;27;20556;-60
2022/03/27 07:24:09;;;;;;;11.48;10.52;;;5.50;99.90;;;;;;5103401;27;20673;-60
2022/03/27 07:26:49;;;;;;;12.40;11.30;;;5.70;99.90;;;;;;5084466;27;20589;-59
2022/03/27 07:29:30;;;;;;;10.82;9.95;;;5.80;99.90;;;;;;5118379;22;20731;-59
2022/03/27 07:32:12;;;;;;;12.23;11.13;;;5.90;99.90;;;;;;5086415;27;21039;-60
2022/03/27 07:34:51;;;;;;;12.30;11.10;;;6.10;99.90;;;;;;5084273;27;20562;-59
2022/03/27 07:37:34;;;;;;;12.57;11.38;;;6.30;99.90;;;;;;5104229;27;20575;-60
2022/03/27 07:40:14;;;;;;;12.52;11.30;;;6.40;99.90;;;;;;5071199;28;20568;-58
2022/03/27 07:42:54;;;;;;;12.40;11.30;;;6.60;99.90;;;;;;5125091;27;20540;-59
2022/03/27 07:45:35;;;;;;;13.50;12.27;;;6.70;99.90;;;;;;5113228;27;20562;-58
2022/03/27 07:48:14;;;;;;;13.95;12.55;;;6.90;99.90;;;;;;5103838;27;21070;-59
2022/03/27 07:50:56;;;;;;;13.52;12.45;;;7.10;99.90;;;;;;5123705;27;20567;-58
2022/03/27 07:53:35;;;;;;;16.70;12.98;;;7.20;99.90;;;;;;5083186;28;20576;-58
2022/03/27 07:56:15;;;;;;;15.07;13.63;;;7.40;99.90;;;;;;5083538;27;20978;-59
2022/03/27 07:58:55;;;;;;;14.60;13.32;;;7.50;99.90;;;;;;5103620;27;21142;-61
2022/03/27 08:01:35;;;;;;;14.98;13.48;;;7.70;99.90;;;;;;5103893;27;20554;-59
2022/03/27 08:04:14;;;;;;;13.65;12.52;;;7.90;99.90;;;;;;5103694;27;20549;-58
2022/03/27 08:06:54;;;;;;;14.35;13.15;;;8.00;99.90;;;;;;5144843;27;20888;-59
2022/03/27 08:09:34;;;;;;;16.08;14.57;;;8.20;99.90;;;;;;5077645;27;20568;-59
2022/03/27 08:12:14;;;;;;;15.13;13.70;;;8.30;99.90;;;;;;5144154;27;20543;-61
2022/03/27 08:14:54;;;;;;;15.20;13.82;;;8.50;99.90;;;;;;5103875;27;20983;-58
2022/03/27 08:17:34;;;;;;;14.40;13.10;;;8.60;99.90;;;;;;5084419;27;20555;-59
2022/03/27 08:20:13;;;;;;;15.98;14.57;;;8.80;99.90;;;;;;5123871;27;20954;-61
2022/03/27 08:22:54;;;;;;;15.32;14.07;;;8.90;99.90;;;;;;5144685;27;20615;-59
2022/03/27 08:28:31;;;;;;;15.55;14.23;;;9.10;99.90;;;;;;5104553;27;20568;-58
2022/03/27 08:31:10;;;;;;;15.02;13.10;;;9.30;99.90;;;;;;5103315;27;20558;-58
2022/03/27 08:33:50;;;;;;;15.38;13.82;;;9.50;99.90;;;;;;5124372;27;21016;-58
2022/03/27 08:36:30;;;;;;;16.08;14.48;;;9.70;99.90;;;;;;5104100;27;21128;-59
2022/03/27 08:39:10;;;;;;;16.15;14.65;;;9.90;99.90;;;;;;5105893;27;20565;-58
2022/03/27 08:41:54;;;;;;;16.95;15.13;;;10.10;99.90;;;;;;5083958;27;20551;-59
2022/03/27 08:44:34;;;;;;;17.08;15.30;;;10.20;99.90;;;;;;5121412;27;20601;-60
2022/03/27 08:47:20;;;;;;;14.82;13.57;;;10.40;99.90;;;;;;5125201;27;20544;-60
2022/03/27 08:50:13;;;;;;;16.40;14.77;;;10.50;99.90;;;;;;5092460;27;20584;-59
2022/03/27 08:52:57;;;;;;;15.43;14.10;;;10.60;99.90;;;;;;5145993;27;20592;-59
2022/03/27 08:55:50;;;;;;;17.65;15.82;;;10.70;99.90;;;;;;5083027;28;20895;-61
2022/03/27 08:58:34;;;;;;;17.08;14.63;;;10.90;99.90;;;;;;5143140;27;20534;-59
2022/03/27 09:01:17;;;;;;;16.98;15.18;;;11.10;99.90;;;;;;5083825;27;20552;-59
2022/03/27 09:03:56;;;;;;;16.58;15.18;;;11.20;99.90;;;;;;5125026;27;20863;-60
2022/03/27 09:06:36;;;;;;;15.98;14.52;;;11.30;99.90;;;;;;5083799;27;20766;-60
2022/03/27 09:09:16;;;;;;;15.70;14.15;;;11.40;99.90;;;;;;5104567;27;20559;-58
2022/03/27 09:12:05;;;;;;;16.85;15.23;;;11.60;99.90;;;;;;5144815;27;20570;-60
2022/03/27 09:14:51;;;;;;;16.48;14.80;;;11.70;99.90;;;;;;5102832;27;20605;-59
2022/03/27 09:17:30;;;;;;;16.42;14.85;;;11.90;99.90;;;;;;5103706;27;20596;-59
2022/03/27 09:20:11;;;;;;;15.25;13.95;;;12.00;99.90;;;;;;5156031;27;20890;-58
2022/03/27 09:22:49;;;;;;;17.20;14.95;;;12.10;99.90;;;;;;5103563;27;21052;-58
2022/03/27 09:25:30;;;;;;;17.52;15.73;;;12.30;99.90;;;;;;5102879;27;20549;-60
2022/03/27 09:28:11;;;;;;;16.63;15.25;;;12.40;99.90;;;;;;5084700;27;20581;-60
2022/03/27 09:30:51;;;;;;;15.90;14.55;;;12.60;99.90;;;;;;5083953;27;20586;-57
2022/03/27 09:33:46;;;;;;;16.60;15.13;;;12.70;99.90;;;;;;5104809;27;20549;-58
2022/03/27 09:36:27;;;;;;;16.52;14.93;;;12.80;99.90;;;;;;5084953;27;20565;-58
2022/03/27 09:39:11;;;;;;;16.02;14.60;;;13.00;99.90;;;;;;5125141;27;20582;-60
2022/03/27 09:41:54;;;;;;;16.20;14.68;;;13.10;99.90;;;;;;5084745;28;20664;-58
2022/03/27 09:44:36;;;;;;;16.15;14.57;;;13.30;99.90;;;;;;5145493;27;20526;-58
2022/03/27 09:47:15;;;;;;;13.70;12.45;;;13.40;99.90;;;;;;5084844;27;21282;-57
2022/03/27 09:49:55;;;;;;;12.68;11.43;;;13.50;99.90;;;;;;5104070;27;20549;-59
2022/03/27 09:52:36;;;;;;;12.65;11.55;;;13.70;99.90;;;;;;5084988;27;20548;-59
2022/03/27 09:55:16;;;;;;;14.50;12.77;;;13.90;99.90;;;;;;5084363;27;21079;-60
2022/03/27 09:57:59;;;;;;;13.93;12.68;;;14.10;99.90;;;;;;5105240;27;20677;-58
2022/03/27 10:00:39;;;;;;;13.82;12.73;;;14.30;99.90;;;;;;5083955;28;20563;-59
2022/03/27 10:03:19;;;;;;;14.02;12.82;;;14.40;99.90;;;;;;5146683;27;20542;-58
2022/03/27 10:05:59;;;;;;;10.93;10.02;;;14.50;99.90;;;;;;5105342;27;20557;-59
2022/03/27 10:08:39;;;;;;;12.80;11.02;;;14.60;99.90;;;;;;5105854;27;20840;-59
2022/03/27 10:11:21;;;;;;;11.13;10.23;;;14.50;99.90;;;;;;5084512;27;20613;-59
2022/03/27 10:14:00;;;;;;;10.70;9.80;;;14.60;99.90;;;;;;5084935;27;20562;-58
2022/03/27 10:16:48;;;;;;;10.40;9.40;;;14.70;99.90;;;;;;5084838;27;20569;-59
2022/03/27 10:19:38;;;;;;;9.32;8.32;;;14.70;99.90;;;;;;5083954;27;20593;-59
2022/03/27 10:22:21;;;;;;;9.60;8.73;;;14.80;99.90;;;;;;5084991;27;20568;-59
2022/03/27 10:25:04;;;;;;;9.48;8.68;;;14.90;99.90;;;;;;5084031;27;20553;-58
2022/03/27 10:27:46;;;;;;;9.18;8.45;;;15.00;99.90;;;;;;5105169;27;20537;-60
2022/03/27 10:30:26;;;;;;;10.65;9.75;;;15.20;99.90;;;;;;5083957;27;21088;-58
2022/03/27 10:33:07;;;;;;;7.70;7.15;;;15.50;99.90;;;;;;5105036;27;20555;-60
2022/03/27 10:35:55;;;;;;;10.63;9.82;;;15.80;99.90;;;;;;5105048;27;21181;-58
2022/03/27 10:38:46;;;;;;;11.57;10.68;;;16.00;99.90;;;;;;5125693;27;20536;-59
2022/03/27 10:41:32;;;;;;;12.73;11.52;;;16.20;99.90;;;;;;5145729;27;20875;-59
2022/03/27 10:44:20;;;;;;;9.70;8.80;;;16.10;99.90;;;;;;5084785;28;20535;-59
2022/03/27 10:47:18;;;;;;;9.98;9.18;;;15.90;99.90;;;;;;5085487;27;20562;-60
2022/03/27 10:50:30;;;;;;;9.88;8.98;;;15.90;99.90;;;;;;5104144;27;20575;-58
2022/03/27 10:53:10;;;;;;;9.50;8.70;;;16.30;99.90;;;;;;5085027;27;20577;-60
2022/03/27 10:55:52;;;;;;;9.32;8.63;;;16.90;99.90;;;;;;5146462;27;20527;-59
2022/03/27 10:58:40;;;;;;;6.15;5.55;;;17.30;99.90;;;;;;5085026;27;20545;-56
2022/03/27 11:01:39;;;;;;;5.72;5.22;;;17.60;99.90;;;;;;5084408;27;20576;-59
2022/03/27 11:04:20;;;;;;;4.72;4.40;;;17.90;99.80;;;;;;5084312;28;20652;-59
2022/03/27 11:07:22;;;;;;;4.75;4.35;;;18.10;97.30;;;;;;5083204;27;21072;-60
2022/03/27 11:10:01;;;;;;;3.53;3.22;;;18.30;94.70;;;;;;5083863;27;21087;-58
2022/03/27 11:12:42;;;;;;;5.78;5.13;;;18.30;91.20;;;;;;5084601;28;20564;-59
2022/03/27 11:15:22;;;;;;;4.65;4.25;;;18.40;91.70;;;;;;5084144;27;20572;-59
2022/03/27 11:18:12;;;;;;;5.25;4.85;;;18.60;91.10;;;;;;5105387;27;20580;-59
2022/03/27 11:20:52;;;;;;;5.40;5.00;;;18.80;88.30;;;;;;5083869;27;20556;-60
2022/03/27 11:23:37;;;;;;;5.97;5.47;;;19.00;85.00;;;;;;5084554;28;20560;-59
2022/03/27 11:26:35;;;;;;;5.72;5.32;;;19.40;79.70;;;;;;5125521;27;20540;-59
2022/03/27 11:29:23;;;;;;;5.72;5.30;;;19.50;78.60;;;;;;5083797;27;20570;-61
2022/03/27 11:32:08;;;;;;;5.25;4.88;;;19.90;75.90;;;;;;5105175;27;20555;-59
2022/03/27 11:35:12;;;;;;;4.50;4.20;;;20.10;70.40;;;;;;5124913;27;20660;-60
2022/03/27 11:38:20;;;;;;;6.55;6.05;;;19.90;69.00;;;;;;5084913;27;20574;-57
2022/03/27 11:41:24;;;;;;;5.82;5.43;;;19.70;70.20;;;;;;5146276;27;21026;-59
2022/03/27 11:47:36;;;;;;;6.13;5.63;;;19.30;74.30;;;;;;5105223;27;20545;-60
2022/03/27 11:50:34;;;;;;;6.75;6.15;;;19.60;73.20;;;;;;5083759;27;20581;-62
2022/03/27 11:53:14;;;;;;;6.50;5.90;;;19.80;70.70;;;;;;5105836;27;20558;-59
2022/03/27 11:55:53;;;;;;;5.57;5.18;;;20.20;67.90;;;;;;5083481;27;20569;-59
2022/03/27 11:58:34;;;;;;;7.45;6.82;;;20.20;66.60;;;;;;5125186;27;20659;-59
2022/03/27 12:01:13;;;;;;;7.30;6.80;;;20.30;67.90;;;;;;5145282;27;20546;-61
2022/03/27 12:03:58;;;;;;;7.18;6.55;;;20.00;68.60;;;;;;5125443;27;20536;-59
2022/03/27 12:06:38;;;;;;;6.38;5.97;;;19.50;73.90;;;;;;5082994;27;20560;-59
2022/03/27 12:09:28;;;;;;;8.00;6.47;;;19.20;77.30;;;;;;5084153;28;21388;-61
2022/03/27 12:12:10;;;;;;;6.65;6.15;;;19.00;78.40;;;;;;5085112;28;20545;-58
2022/03/27 12:14:54;;;;;;;7.35;6.72;;;19.10;79.70;;;;;;5145654;27;20542;-59
2022/03/27 12:17:44;;;;;;;6.63;6.13;;;19.00;77.80;;;;;;5103784;27;20807;-58
2022/03/27 12:20:25;;;;;;;5.95;5.45;;;18.70;77.70;;;;;;5124649;27;20567;-60
2022/03/27 12:23:04;;;;;;;6.35;5.85;;;18.10;84.70;;;;;;5084981;27;20558;-61
2022/03/27 12:25:44;;;;;;;6.72;6.10;;;17.90;83.70;;;;;;5084025;27;20561;-59
2022/03/27 12:31:23;;;;;;;5.88;5.43;;;17.80;88.50;;;;;;5083967;28;20543;-58
2022/03/27 12:34:03;;;;;;;6.35;5.82;;;17.70;90.50;;;;;;5146582;27;20538;-58
2022/03/27 12:37:11;;;;;;;7.47;6.85;;;17.80;90.40;;;;;;5104943;27;21059;-58
2022/03/27 12:40:09;;;;;;;7.10;6.50;;;17.80;90.60;;;;;;5083956;28;20723;-60
2022/03/27 12:42:50;;;;;;;5.88;5.47;;;17.80;89.50;;;;;;5105468;27;20537;-59
2022/03/27 12:45:33;;;;;;;6.80;6.20;;;17.60;90.40;;;;;;5104424;27;20571;-60
2022/03/27 12:48:17;;;;;;;7.53;6.93;;;17.40;91.10;;;;;;5104924;27;20567;-59
2022/03/27 12:51:00;;;;;;;6.07;5.65;;;17.30;92.20;;;;;;5083718;27;21026;-59
2022/03/27 12:53:40;;;;;;;7.93;7.22;;;17.20;94.30;;;;;;5105029;27;20555;-59
2022/03/27 12:56:20;;;;;;;7.05;6.53;;;17.30;92.00;;;;;;5084371;27;21068;-61
2022/03/27 12:59:18;;;;;;;6.80;6.32;;;17.60;92.00;;;;;;5084997;28;20560;-59
2022/03/27 13:01:57;;;;;;;6.03;5.63;;;18.00;90.20;;;;;;5085216;27;20577;-58
2022/03/27 13:04:37;;;;;;;6.45;5.95;;;18.40;85.10;;;;;;5104728;27;20550;-59
2022/03/27 13:07:18;;;;;;;7.10;6.60;;;18.70;85.70;;;;;;5144734;27;20599;-58
2022/03/27 13:09:58;;;;;;;8.13;7.32;;;18.70;81.10;;;;;;5104143;27;20565;-59
2022/03/27 13:12:38;;;;;;;6.90;6.40;;;18.70;79.70;;;;;;5084679;27;20940;-59
2022/03/27 13:15:36;;;;;;;6.72;6.22;;;18.80;80.40;;;;;;5084020;27;21021;-60
2022/03/27 13:18:18;;;;;;;7.68;7.07;;;19.00;80.50;;;;;;5125618;27;20540;-60
2022/03/27 13:20:57;;;;;;;6.95;6.45;;;19.40;77.80;;;;;;5103849;27;21045;-58
2022/03/27 13:23:37;;;;;;;7.47;6.97;;;19.30;75.50;;;;;;5084514;27;21200;-59
2022/03/27 13:26:16;;;;;;;7.25;6.75;;;19.00;76.60;;;;;;5084266;27;20534;-58
2022/03/27 13:28:57;;;;;;;7.45;6.90;;;18.80;77.30;;;;;;5126021;27;20610;-59
2022/03/27 13:31:37;;;;;;;7.05;6.55;;;18.80;76.40;;;;;;5106333;27;20568;-58
2022/03/27 13:34:17;;;;;;;6.72;6.13;;;18.90;76.60;;;;;;5106010;27;20549;-60
2022/03/27 13:36:58;;;;;;;6.88;6.38;;;18.90;79.50;;;;;;5085954;27;20547;-59
2022/03/27 13:39:37;;;;;;;6.63;6.10;;;18.60;78.70;;;;;;5085339;27;20576;-59
2022/03/27 13:45:14;;;;;;;6.80;6.30;;;18.00;85.80;;;;;;5085552;28;21083;-58
2022/03/27 13:47:55;;;;;;;6.72;6.20;;;17.70;88.60;;;;;;5105799;27;21119;-56
2022/03/27 13:50:34;;;;;;;6.72;6.22;;;17.60;88.90;;;;;;5125837;27;20552;-58
2022/03/27 13:53:14;;;;;;;7.40;6.90;;;17.60;88.80;;;;;;5085740;27;20561;-57
2022/03/27 13:55:54;;;;;;;6.78;6.25;;;17.90;87.60;;;;;;5086003;27;20547;-60
2022/03/27 13:58:34;;;;;;;6.95;6.53;;;18.30;87.40;;;;;;5106276;27;21168;-59
2022/03/27 14:01:14;;;;;;;7.72;7.22;;;18.70;88.10;;;;;;5106105;27;20545;-57
2022/03/27 14:03:53;;;;;;;8.75;8.20;;;19.00;86.20;;;;;;5106513;27;20563;-59
2022/03/27 14:06:34;;;;;;;7.85;7.28;;;18.90;81.90;;;;;;5086252;27;20581;-59
2022/03/27 14:09:13;;;;;;;8.30;7.70;;;18.60;86.90;;;;;;5106599;27;20583;-58
2022/03/27 14:11:53;;;;;;;7.50;7.00;;;18.40;84.70;;;;;;5071498;27;20626;-58
2022/03/27 14:14:33;;;;;;;7.22;6.60;;;18.20;89.70;;;;;;5084978;27;20551;-60
2022/03/27 14:17:13;;;;;;;7.22;6.72;;;17.90;90.30;;;;;;5085779;28;20555;-60
2022/03/27 14:19:52;;;;;;;7.47;6.95;;;17.70;92.50;;;;;;5085488;27;20585;-57